createdAt,value
2019-03-23T00:00:11.976Z,11.45
2019-03-23T00:02:47.151Z,11.83
2019-03-23T00:05:15.038Z,14.43
2019-03-23T00:07:41.659Z,13.23
2019-03-23T00:10:09.248Z,11.05
2019-03-23T00:12:35.974Z,14.00
2019-03-23T00:15:02.705Z,11.07
2019-03-23T00:17:29.679Z,14.10
2019-03-23T00:22:41.792Z,11.67
2019-03-23T00:25:11.054Z,12.87
2019-03-23T00:27:37.893Z,12.13
2019-03-23T00:30:04.852Z,13.33
2019-03-23T00:32:36.520Z,9.40
2019-03-23T00:35:02.753Z,10.60
2019-03-23T00:37:29.664Z,12.23
2019-03-23T00:39:56.594Z,12.70
2019-03-23T00:42:23.178Z,12.13
2019-03-23T00:44:50.274Z,11.73
2019-03-23T00:47:17.218Z,10.80
2019-03-23T00:49:45.368Z,14.25
2019-03-23T00:52:12.673Z,12.00
2019-03-23T00:54:39.332Z,11.80
2019-03-23T00:57:06.034Z,10.67
2019-03-23T00:59:32.842Z,15.87
2019-03-23T01:01:59.427Z,11.73
2019-03-23T01:04:26.293Z,12.53
2019-03-23T01:06:53.044Z,13.97
2019-03-23T01:09:20.005Z,18.77
2019-03-23T01:11:46.614Z,11.40
2019-03-23T01:14:14.456Z,10.13
2019-03-23T01:16:41.329Z,10.10
2019-03-23T01:19:08.193Z,11.20
2019-03-23T01:21:35.134Z,13.30
2019-03-23T01:24:01.805Z,13.27
2019-03-23T01:26:28.709Z,14.58
2019-03-23T01:28:56.147Z,16.50
2019-03-23T01:31:22.787Z,10.47
2019-03-23T01:33:49.489Z,11.10
2019-03-23T01:36:16.695Z,12.07
2019-03-23T01:38:43.692Z,12.07
2019-03-23T01:41:10.359Z,13.70
2019-03-23T01:43:37.117Z,12.67
2019-03-23T01:46:03.992Z,10.57
2019-03-23T01:48:30.664Z,13.33
2019-03-23T01:50:57.602Z,12.17
2019-03-23T01:53:24.207Z,10.43
2019-03-23T01:55:59.164Z,11.07
2019-03-23T01:58:26.656Z,10.25
2019-03-23T02:00:53.440Z,11.73
2019-03-23T02:03:20.189Z,15.13
2019-03-23T02:05:47.746Z,10.03
2019-03-23T02:08:14.369Z,10.30
2019-03-23T02:10:42.053Z,10.03
2019-03-23T02:13:09.271Z,9.10
2019-03-23T02:15:39.011Z,10.33
2019-03-23T02:20:35.147Z,11.08
2019-03-23T02:23:02.004Z,10.80
2019-03-23T02:25:29.598Z,11.00
2019-03-23T02:27:56.384Z,10.93
2019-03-23T02:30:24.256Z,10.27
2019-03-23T02:32:52.068Z,11.33
2019-03-23T02:35:19.621Z,9.85
2019-03-23T02:37:46.596Z,14.27
2019-03-23T02:40:13.300Z,12.57
2019-03-23T02:42:40.589Z,12.57
2019-03-23T02:45:07.309Z,11.30
2019-03-23T02:47:34.885Z,10.03
2019-03-23T02:50:02.707Z,11.95
2019-03-23T02:52:29.630Z,13.70
2019-03-23T02:54:57.819Z,11.67
2019-03-23T02:57:29.106Z,12.03
2019-03-23T02:59:57.001Z,10.48
2019-03-23T03:02:23.736Z,14.13
2019-03-23T03:04:51.680Z,12.10
2019-03-23T03:07:18.327Z,11.43
2019-03-23T03:09:44.921Z,16.30
2019-03-23T03:15:03.363Z,9.53
2019-03-23T03:17:30.548Z,8.57
2019-03-23T03:19:58.208Z,12.70
2019-03-23T03:22:24.941Z,11.87
2019-03-23T03:24:51.662Z,11.22
2019-03-23T03:27:18.378Z,11.77
2019-03-23T03:29:45.313Z,13.65
2019-03-23T03:32:13.339Z,12.43
2019-03-23T03:34:40.085Z,11.83
2019-03-23T03:37:06.980Z,13.63
2019-03-23T03:39:33.652Z,10.70
2019-03-23T03:42:00.536Z,9.63
2019-03-23T03:44:28.121Z,11.47
2019-03-23T03:46:55.114Z,10.40
2019-03-23T03:49:21.713Z,11.27
2019-03-23T03:51:48.535Z,11.10
2019-03-23T03:54:15.562Z,11.97
2019-03-23T03:56:43.187Z,13.60
2019-03-23T03:59:09.850Z,10.83
2019-03-23T04:01:37.250Z,11.10
2019-03-23T04:04:04.047Z,9.77
2019-03-23T04:06:31.914Z,10.23
2019-03-23T04:08:58.589Z,11.07
2019-03-23T04:11:26.578Z,14.07
2019-03-23T04:13:53.492Z,11.70
2019-03-23T04:16:20.828Z,16.50
2019-03-23T04:18:47.470Z,10.37
2019-03-23T04:21:17.074Z,12.93
2019-03-23T04:23:43.668Z,13.00
2019-03-23T04:26:16.744Z,15.43
2019-03-23T04:28:47.770Z,14.57
2019-03-23T04:31:17.386Z,11.90
2019-03-23T04:33:48.426Z,14.90
2019-03-23T04:36:16.927Z,18.67
2019-03-23T04:38:54.763Z,14.50
2019-03-23T04:41:23.952Z,17.00
2019-03-23T04:43:51.827Z,16.17
2019-03-23T04:46:21.416Z,16.60
2019-03-23T04:48:54.571Z,15.10
2019-03-23T04:51:24.966Z,15.40
2019-03-23T04:53:55.421Z,13.80
2019-03-23T04:56:24.535Z,16.47
2019-03-23T04:58:52.194Z,17.33
2019-03-23T05:04:04.878Z,16.73
2019-03-23T05:06:32.658Z,16.23
2019-03-23T05:09:03.922Z,19.63
2019-03-23T05:14:20.201Z,18.10
2019-03-23T05:17:05.778Z,17.57
2019-03-23T05:19:35.330Z,14.93
2019-03-23T05:22:06.469Z,15.40
2019-03-23T05:24:38.476Z,14.20
2019-03-23T05:27:06.419Z,18.40
2019-03-23T05:29:50.490Z,17.57
2019-03-23T05:32:17.353Z,14.27
2019-03-23T05:34:45.161Z,12.10
2019-03-23T05:37:12.675Z,11.75
2019-03-23T05:39:45.328Z,13.40
2019-03-23T05:42:23.909Z,10.60
2019-03-23T05:48:02.570Z,11.07
2019-03-23T05:50:30.519Z,14.10
2019-03-23T05:52:58.351Z,9.60
2019-03-23T05:55:29.140Z,14.70
2019-03-23T05:57:56.513Z,13.63
2019-03-23T06:00:24.509Z,12.80
2019-03-23T06:02:53.431Z,11.22
2019-03-23T06:05:25.310Z,10.30
2019-03-23T06:07:55.998Z,13.57
2019-03-23T06:10:24.394Z,11.60
2019-03-23T06:12:55.441Z,10.90
2019-03-23T06:15:23.341Z,9.48
2019-03-23T06:17:53.386Z,10.90
2019-03-23T06:20:20.016Z,18.83
2019-03-23T06:22:46.645Z,12.37
2019-03-23T06:25:13.599Z,12.00
2019-03-23T06:27:40.204Z,10.63
2019-03-23T06:30:06.956Z,14.47
2019-03-23T06:32:33.819Z,9.37
2019-03-23T06:35:01.821Z,12.73
2019-03-23T06:37:28.578Z,9.90
2019-03-23T06:39:55.446Z,10.20
2019-03-23T06:42:22.639Z,14.55
2019-03-23T06:44:49.282Z,11.27
2019-03-23T06:47:17.063Z,8.93
2019-03-23T06:49:43.657Z,13.23
2019-03-23T06:52:10.266Z,14.80
2019-03-23T06:54:36.929Z,12.67
2019-03-23T06:57:03.531Z,10.80
2019-03-23T06:59:30.256Z,16.23
2019-03-23T07:01:56.911Z,13.63
2019-03-23T07:04:23.488Z,9.63
2019-03-23T07:06:50.068Z,11.40
2019-03-23T07:09:16.762Z,10.73
2019-03-23T07:11:43.960Z,10.68
2019-03-23T07:14:10.572Z,9.10
2019-03-23T07:16:37.570Z,12.67
2019-03-23T07:19:04.172Z,11.87
2019-03-23T07:21:30.767Z,9.23
2019-03-23T07:23:58.709Z,9.50
2019-03-23T07:26:25.327Z,11.87
2019-03-23T07:28:52.731Z,8.53
2019-03-23T07:31:19.722Z,10.18
2019-03-23T07:33:46.386Z,12.13
2019-03-23T07:36:13.477Z,7.85
2019-03-23T07:38:40.112Z,8.83
2019-03-23T07:41:06.713Z,10.53
2019-03-23T07:43:33.566Z,9.07
2019-03-23T07:46:01.000Z,10.17
2019-03-23T07:48:28.626Z,10.03
2019-03-23T07:50:55.325Z,10.13
2019-03-23T07:53:22.342Z,11.40
2019-03-23T07:55:49.204Z,7.93
2019-03-23T07:58:15.795Z,10.20
2019-03-23T08:00:43.008Z,9.60
2019-03-23T08:03:09.627Z,11.27
2019-03-23T08:05:36.507Z,6.92
2019-03-23T08:08:03.297Z,7.60
2019-03-23T08:10:29.963Z,10.03
2019-03-23T08:12:56.562Z,12.50
2019-03-23T08:15:23.329Z,13.00
2019-03-23T08:17:50.092Z,8.17
2019-03-23T08:20:17.730Z,8.87
2019-03-23T08:22:44.940Z,8.50
2019-03-23T08:25:13.844Z,8.43
2019-03-23T08:27:42.525Z,10.07
2019-03-23T08:30:13.090Z,10.85
2019-03-23T08:32:40.665Z,12.00
2019-03-23T08:35:11.716Z,14.43
2019-03-23T08:37:50.715Z,11.80
2019-03-23T08:40:22.557Z,13.15
2019-03-23T08:42:54.605Z,14.37
2019-03-23T08:45:22.340Z,14.38
2019-03-23T08:47:49.951Z,13.87
2019-03-23T08:50:23.287Z,14.07
2019-03-23T08:52:53.841Z,12.67
2019-03-23T08:55:25.234Z,15.00
2019-03-23T09:00:51.447Z,15.13
2019-03-23T09:06:07.371Z,13.53
2019-03-23T09:08:34.972Z,16.07
2019-03-23T09:11:01.617Z,15.07
2019-03-23T09:13:40.059Z,14.72
2019-03-23T09:15:58.430Z,16.27
2019-03-23T09:18:25.098Z,14.30
2019-03-23T09:20:52.079Z,16.67
2019-03-23T09:23:18.752Z,16.30
2019-03-23T09:25:45.873Z,17.77
2019-03-23T09:28:12.776Z,14.53
2019-03-23T09:30:39.557Z,16.67
2019-03-23T09:33:06.274Z,14.03
2019-03-23T09:35:32.914Z,12.30
2019-03-23T09:37:59.829Z,14.13
2019-03-23T09:40:26.434Z,15.77
2019-03-23T09:43:17.219Z,20.80
2019-03-23T09:45:26.243Z,15.57
2019-03-23T09:47:53.130Z,17.00
2019-03-23T09:50:22.317Z,16.50
2019-03-23T09:52:52.968Z,17.73
2019-03-23T09:55:37.250Z,15.53
2019-03-23T10:00:53.683Z,14.00
2019-03-23T10:03:23.649Z,16.12
2019-03-23T10:05:51.287Z,12.53
2019-03-23T10:08:19.159Z,12.60
2019-03-23T10:10:46.370Z,14.33
2019-03-23T10:13:13.426Z,17.33
2019-03-23T10:15:45.385Z,16.43
2019-03-23T10:18:13.495Z,12.87
2019-03-23T10:20:40.344Z,17.52
2019-03-23T10:23:07.007Z,12.70
2019-03-23T10:25:33.761Z,15.60
2019-03-23T10:28:00.366Z,15.67
2019-03-23T10:30:27.086Z,15.47
2019-03-23T10:32:54.271Z,15.48
2019-03-23T10:35:21.220Z,15.03
2019-03-23T10:37:48.538Z,16.62
2019-03-23T10:40:15.612Z,15.00
2019-03-23T10:42:43.353Z,15.43
2019-03-23T10:45:10.447Z,18.98
2019-03-23T10:47:37.463Z,12.77
2019-03-23T10:50:04.486Z,14.97
2019-03-23T10:52:31.387Z,16.47
2019-03-23T10:54:58.315Z,15.07
2019-03-23T10:57:25.200Z,18.00
2019-03-23T10:59:52.144Z,13.97
2019-03-23T11:02:18.927Z,12.00
2019-03-23T11:04:45.883Z,14.30
2019-03-23T11:07:12.848Z,13.90
2019-03-23T11:09:39.900Z,17.25
2019-03-23T11:12:06.893Z,16.00
2019-03-23T11:14:33.841Z,16.33
2019-03-23T11:17:00.758Z,15.13
2019-03-23T11:19:27.935Z,13.08
2019-03-23T11:21:54.844Z,13.70
2019-03-23T11:24:22.377Z,13.77
2019-03-23T11:26:49.331Z,12.68
2019-03-23T11:29:16.223Z,15.27
2019-03-23T11:31:43.296Z,14.53
2019-03-23T11:34:17.729Z,15.00
2019-03-23T11:36:39.541Z,15.57
2019-03-23T11:39:06.679Z,15.10
2019-03-23T11:41:33.314Z,16.62
2019-03-23T11:44:00.291Z,15.55
2019-03-23T11:46:27.243Z,16.07
2019-03-23T11:48:54.435Z,17.12
2019-03-23T11:51:21.457Z,15.48
2019-03-23T11:53:48.436Z,16.70
2019-03-23T11:56:15.161Z,15.87
2019-03-23T11:58:42.047Z,13.37
2019-03-23T12:01:08.996Z,15.77
2019-03-23T12:03:35.880Z,14.67
2019-03-23T12:06:03.013Z,16.57
2019-03-23T12:08:29.720Z,13.97
2019-03-23T12:11:02.796Z,16.23
2019-03-23T12:13:25.579Z,16.07
2019-03-23T12:15:52.556Z,17.10
2019-03-23T12:18:20.669Z,15.67
2019-03-23T12:20:49.652Z,15.85
2019-03-23T12:23:19.150Z,16.70
2019-03-23T12:25:54.737Z,16.87
2019-03-23T12:28:24.640Z,16.63
2019-03-23T12:30:53.747Z,16.42
2019-03-23T12:33:24.679Z,12.83
2019-03-23T12:35:53.527Z,15.87
2019-03-23T12:41:22.823Z,16.30
2019-03-23T12:43:53.243Z,19.40
2019-03-23T12:46:21.379Z,16.20
2019-03-23T12:48:49.279Z,13.40
2019-03-23T12:51:19.283Z,15.75
2019-03-23T12:53:47.754Z,16.90
2019-03-23T12:56:16.853Z,15.50
2019-03-23T12:58:47.181Z,16.23
2019-03-23T13:01:18.139Z,14.80
2019-03-23T13:03:45.523Z,15.10
2019-03-23T13:06:13.795Z,15.20
2019-03-23T13:08:52.085Z,15.97
2019-03-23T13:11:34.811Z,15.75
2019-03-23T13:16:42.466Z,18.00
2019-03-23T13:19:13.123Z,16.87
2019-03-23T13:21:41.067Z,13.15
2019-03-23T13:24:12.271Z,13.70
2019-03-23T13:26:40.375Z,14.25
2019-03-23T13:29:10.938Z,14.87
2019-03-23T13:31:48.761Z,15.83
2019-03-23T13:34:18.882Z,16.60
2019-03-23T13:36:46.050Z,13.37
2019-03-23T13:39:20.440Z,14.63
2019-03-23T13:41:51.260Z,13.20
2019-03-23T13:44:21.176Z,12.90
2019-03-23T13:46:59.529Z,11.10
2019-03-23T13:49:31.625Z,16.73
2019-03-23T13:52:04.977Z,14.00
2019-03-23T13:54:33.740Z,11.83
2019-03-23T13:57:00.655Z,11.40
2019-03-23T13:59:31.755Z,11.63
2019-03-23T14:01:59.628Z,14.20
2019-03-23T14:04:29.316Z,10.93
2019-03-23T14:07:00.075Z,14.45
2019-03-23T14:09:30.773Z,12.33
2019-03-23T14:11:58.454Z,11.37
2019-03-23T14:14:26.383Z,12.27
2019-03-23T14:17:00.608Z,11.40
2019-03-23T14:19:31.468Z,11.90
2019-03-23T14:22:03.871Z,12.10
2019-03-23T14:24:30.729Z,9.87
2019-03-23T14:26:58.627Z,9.15
2019-03-23T14:29:26.801Z,12.10
2019-03-23T14:31:57.782Z,10.65
2019-03-23T14:34:24.647Z,9.67
2019-03-23T14:36:57.304Z,9.28
2019-03-23T14:39:26.883Z,8.58
2019-03-23T14:41:54.346Z,10.55
2019-03-23T14:47:09.064Z,12.40
2019-03-23T14:49:36.975Z,9.70
2019-03-23T14:52:03.675Z,12.73
2019-03-23T14:54:32.493Z,9.65
2019-03-23T14:56:59.379Z,9.70
2019-03-23T14:59:27.785Z,9.90
2019-03-23T15:04:40.798Z,10.53
2019-03-23T15:07:07.747Z,12.93
2019-03-23T15:09:34.654Z,9.23
2019-03-23T15:12:01.521Z,9.67
2019-03-23T15:14:28.414Z,9.80
2019-03-23T15:16:55.294Z,10.07
2019-03-23T15:19:21.934Z,10.37
2019-03-23T15:21:48.911Z,10.93
2019-03-23T15:24:15.802Z,9.03
2019-03-23T15:26:42.382Z,10.18
2019-03-23T15:29:09.306Z,9.10
2019-03-23T15:31:36.254Z,9.35
2019-03-23T15:34:03.239Z,9.60
2019-03-23T15:36:30.115Z,9.90
2019-03-23T15:38:57.006Z,11.93
2019-03-23T15:41:24.880Z,13.55
2019-03-23T15:43:51.730Z,10.98
2019-03-23T15:46:18.605Z,10.13
2019-03-23T15:48:45.485Z,9.53
2019-03-23T15:51:12.516Z,11.33
2019-03-23T15:53:39.436Z,10.87
2019-03-23T15:56:06.179Z,11.37
2019-03-23T15:58:33.111Z,11.13
2019-03-23T16:00:59.751Z,13.37
2019-03-23T16:03:26.668Z,9.03
2019-03-23T16:05:53.548Z,12.47
2019-03-23T16:08:20.247Z,10.03
2019-03-23T16:10:47.111Z,12.63
2019-03-23T16:13:14.025Z,10.43
2019-03-23T16:15:40.899Z,8.33
2019-03-23T16:18:07.793Z,8.03
2019-03-23T16:20:34.741Z,13.20
2019-03-23T16:23:01.917Z,9.10
2019-03-23T16:25:29.580Z,12.35
2019-03-23T16:27:56.488Z,9.80
2019-03-23T16:30:23.955Z,14.57
2019-03-23T16:32:50.820Z,10.60
2019-03-23T16:35:18.224Z,11.27
2019-03-23T16:37:44.840Z,10.97
2019-03-23T16:40:11.725Z,11.67
2019-03-23T16:42:45.265Z,7.97
2019-03-23T16:45:06.964Z,9.03
2019-03-23T16:47:33.897Z,9.50
2019-03-23T16:50:00.883Z,9.33
2019-03-23T16:52:27.802Z,11.37
2019-03-23T16:54:54.412Z,9.43
2019-03-23T16:57:21.372Z,8.37
2019-03-23T16:59:49.352Z,8.08
2019-03-23T17:02:16.203Z,7.93
2019-03-23T17:04:43.428Z,7.15
2019-03-23T17:07:10.391Z,8.23
2019-03-23T17:09:37.280Z,7.63
2019-03-23T17:12:04.556Z,7.72
2019-03-23T17:14:31.472Z,8.33
2019-03-23T17:17:00.259Z,6.70
2019-03-23T17:19:27.224Z,9.05
2019-03-23T17:21:54.115Z,9.10
2019-03-23T17:24:20.714Z,7.97
2019-03-23T17:26:47.615Z,7.60
2019-03-23T17:29:15.232Z,6.98
2019-03-23T17:31:42.166Z,11.30
2019-03-23T17:34:09.041Z,11.67
2019-03-23T17:36:35.936Z,14.80
2019-03-23T17:39:02.857Z,17.00
2019-03-23T17:41:30.346Z,20.20
2019-03-23T17:43:56.954Z,16.23
2019-03-23T17:46:23.800Z,15.63
2019-03-23T17:48:50.738Z,16.70
2019-03-23T17:51:17.432Z,12.17
2019-03-23T17:53:44.314Z,14.60
2019-03-23T17:56:10.976Z,12.80
2019-03-23T17:58:37.592Z,11.23
2019-03-23T18:01:04.457Z,9.85
2019-03-23T18:03:31.095Z,9.77
2019-03-23T18:05:57.972Z,12.88
2019-03-23T18:08:24.602Z,9.57
2019-03-23T18:10:51.257Z,12.50
2019-03-23T18:13:18.129Z,11.60
2019-03-23T18:15:44.751Z,16.27
2019-03-23T18:18:11.784Z,10.43
2019-03-23T18:26:15.385Z,10.83
2019-03-23T18:34:07.287Z,10.47
2019-03-23T18:43:26.758Z,10.78
2019-03-23T18:44:30.765Z,13.67
2019-03-23T18:50:37.354Z,14.77
2019-03-23T18:52:07.499Z,14.63
2019-03-23T18:53:30.612Z,10.63
2019-03-23T18:54:45.621Z,12.87
2019-03-23T18:57:40.013Z,15.43
2019-03-23T19:00:13.900Z,14.47
2019-03-23T19:08:18.449Z,13.95
2019-03-23T19:13:45.867Z,9.93
2019-03-23T19:16:16.759Z,14.28
2019-03-23T19:18:49.294Z,14.30
2019-03-23T19:26:37.360Z,13.37
2019-03-23T19:29:08.272Z,11.63
2019-03-23T19:31:36.437Z,17.57
2019-03-23T19:34:06.249Z,25.33
2019-03-23T19:36:34.663Z,12.37
2019-03-23T19:39:02.445Z,14.90
2019-03-23T19:41:32.803Z,15.10
2019-03-23T19:44:04.783Z,12.47
2019-03-23T19:49:18.803Z,13.17
2019-03-23T19:51:48.467Z,14.47
2019-03-23T19:54:16.100Z,14.63
2019-03-23T19:56:43.624Z,14.03
2019-03-23T19:59:11.242Z,14.60
2019-03-23T20:01:42.074Z,11.40
2019-03-23T20:04:09.438Z,14.03
2019-03-23T20:06:37.979Z,13.23
2019-03-23T20:09:04.442Z,13.30
2019-03-23T20:11:31.361Z,10.77
2019-03-23T20:13:59.119Z,11.88
2019-03-23T20:16:25.792Z,12.23
2019-03-23T20:18:53.229Z,11.40
2019-03-23T20:21:24.344Z,13.23
2019-03-23T20:23:53.476Z,13.27
2019-03-23T20:26:25.354Z,11.60
2019-03-23T20:28:55.104Z,12.77
2019-03-23T20:31:22.706Z,14.00
2019-03-23T20:33:52.041Z,14.93
2019-03-23T20:36:21.647Z,13.47
2019-03-23T20:38:50.697Z,14.43
2019-03-23T20:41:27.609Z,15.93
2019-03-23T20:43:56.728Z,16.97
2019-03-23T20:46:24.567Z,17.33
2019-03-23T20:48:52.650Z,17.80
2019-03-23T20:51:27.910Z,14.50
2019-03-23T20:53:53.216Z,17.20
2019-03-23T20:56:24.948Z,16.77
2019-03-23T20:58:57.034Z,18.12
2019-03-23T21:01:28.167Z,13.03
2019-03-23T21:03:58.072Z,14.68
2019-03-23T21:06:24.682Z,14.53
2019-03-23T21:08:51.415Z,14.93
2019-03-23T21:11:18.734Z,18.43
2019-03-23T21:13:45.583Z,17.73
2019-03-23T21:16:12.237Z,15.40
2019-03-23T21:18:38.991Z,12.93
2019-03-23T21:21:06.354Z,15.15
2019-03-23T21:23:33.171Z,14.53
2019-03-23T21:26:00.256Z,11.43
2019-03-23T21:28:27.116Z,14.60
2019-03-23T21:30:53.754Z,13.00
2019-03-23T21:33:20.602Z,11.87
2019-03-23T21:35:47.233Z,15.60
2019-03-23T21:38:14.216Z,12.45
2019-03-23T21:40:40.929Z,12.77
2019-03-23T21:43:07.682Z,13.27
2019-03-23T21:45:34.259Z,12.68
2019-03-23T21:48:01.152Z,11.23
2019-03-23T21:50:27.777Z,15.83
2019-03-23T21:52:54.716Z,13.70
2019-03-23T21:55:21.402Z,13.30
2019-03-23T21:57:48.117Z,11.47
2019-03-23T22:00:14.732Z,12.40
2019-03-23T22:02:41.374Z,13.57
2019-03-23T22:05:08.022Z,14.50
2019-03-23T22:07:34.638Z,15.13
2019-03-23T22:10:02.020Z,18.15
2019-03-23T22:12:28.845Z,14.03
2019-03-23T22:14:55.556Z,16.43
2019-03-23T22:17:22.220Z,13.80
2019-03-23T22:25:07.417Z,16.73
2019-03-23T22:27:34.127Z,15.97
2019-03-23T22:30:00.925Z,17.10
2019-03-23T22:32:27.606Z,16.40
2019-03-23T22:34:54.260Z,17.93
2019-03-23T22:37:20.931Z,16.40
2019-03-23T22:39:47.553Z,14.33
2019-03-23T22:42:14.531Z,16.70
2019-03-23T22:44:51.821Z,17.40
2019-03-23T22:47:11.016Z,15.53
2019-03-23T22:49:37.639Z,16.03
2019-03-23T22:52:18.266Z,11.93
2019-03-23T22:54:44.966Z,17.03
2019-03-23T22:57:11.933Z,16.40
2019-03-23T22:59:38.840Z,13.90
2019-03-23T23:02:05.595Z,15.47
2019-03-23T23:07:23.175Z,16.17
2019-03-23T23:09:49.817Z,14.33
2019-03-23T23:12:16.424Z,19.20
2019-03-23T23:14:43.363Z,16.97
2019-03-23T23:17:10.206Z,18.50
2019-03-23T23:19:36.971Z,14.47
2019-03-23T23:22:04.758Z,17.27
2019-03-23T23:24:31.671Z,14.20
2019-03-23T23:26:58.648Z,13.10
2019-03-23T23:29:25.754Z,13.93
2019-03-23T23:31:52.360Z,15.33
2019-03-23T23:34:19.097Z,18.20
2019-03-23T23:36:45.757Z,15.70
2019-03-23T23:39:12.335Z,18.63
2019-03-23T23:41:39.076Z,17.60
2019-03-23T23:44:06.503Z,13.60
2019-03-23T23:46:33.136Z,12.70
2019-03-23T23:49:00.066Z,13.60
2019-03-23T23:51:26.883Z,12.63
2019-03-23T23:53:53.585Z,12.27
2019-03-23T23:56:20.447Z,13.33
2019-03-23T23:58:47.126Z,18.00
